sensor_id;sensor_type;location;lat;lon;timestamp;P1;durP1;ratioP1;P2;durP2;ratioP2
75990;SDS011;64673;52.276;10.560;2023-07-16T00:01:43;7.35;;;3.33;;
75990;SDS011;64673;52.276;10.560;2023-07-16T00:04:08;5.88;;;3.13;;
75990;SDS011;64673;52.276;10.560;2023-07-16T00:06:33;6.97;;;2.75;;
75990;SDS011;64673;52.276;10.560;2023-07-16T00:08:59;6.22;;;3.20;;
75990;SDS011;64673;52.276;10.560;2023-07-16T00:11:24;4.15;;;2.60;;
75990;SDS011;64673;52.276;10.560;2023-07-16T00:13:49;5.25;;;2.75;;
75990;SDS011;64673;52.276;10.560;2023-07-16T00:16:15;4.85;;;2.83;;
75990;SDS011;64673;52.276;10.560;2023-07-16T00:18:46;4.63;;;2.60;;
75990;SDS011;64673;52.276;10.560;2023-07-16T00:21:12;5.07;;;2.70;;
75990;SDS011;64673;52.276;10.560;2023-07-16T00:23:37;4.60;;;2.70;;
75990;SDS011;64673;52.276;10.560;2023-07-16T00:26:02;4.85;;;2.22;;
75990;SDS011;64673;52.276;10.560;2023-07-16T00:28:29;4.00;;;2.50;;
75990;SDS011;64673;52.276;10.560;2023-07-16T00:30:54;5.60;;;2.65;;
75990;SDS011;64673;52.276;10.560;2023-07-16T00:33:20;5.10;;;2.80;;
75990;SDS011;64673;52.276;10.560;2023-07-16T00:35:48;4.53;;;2.60;;
75990;SDS011;64673;52.276;10.560;2023-07-16T00:38:15;7.75;;;3.35;;
75990;SDS011;64673;52.276;10.560;2023-07-16T00:40:41;7.93;;;3.50;;
75990;SDS011;64673;52.276;10.560;2023-07-16T00:43:07;4.68;;;2.90;;
75990;SDS011;64673;52.276;10.560;2023-07-16T00:45:32;6.72;;;2.80;;
75990;SDS011;64673;52.276;10.560;2023-07-16T00:47:57;7.30;;;2.90;;
75990;SDS011;64673;52.276;10.560;2023-07-16T00:50:23;5.30;;;2.85;;
75990;SDS011;64673;52.276;10.560;2023-07-16T00:52:48;5.47;;;2.85;;
75990;SDS011;64673;52.276;10.560;2023-07-16T00:55:14;3.30;;;2.78;;
75990;SDS011;64673;52.276;10.560;2023-07-16T00:57:40;4.85;;;2.45;;
75990;SDS011;64673;52.276;10.560;2023-07-16T01:00:05;6.47;;;2.42;;
75990;SDS011;64673;52.276;10.560;2023-07-16T01:02:31;4.30;;;2.40;;
75990;SDS011;64673;52.276;10.560;2023-07-16T01:04:57;5.35;;;2.35;;
75990;SDS011;64673;52.276;10.560;2023-07-16T01:07:23;3.63;;;2.30;;
75990;SDS011;64673;52.276;10.560;2023-07-16T01:09:51;2.70;;;2.22;;
75990;SDS011;64673;52.276;10.560;2023-07-16T01:12:20;3.42;;;2.28;;
75990;SDS011;64673;52.276;10.560;2023-07-16T01:14:47;4.97;;;2.35;;
75990;SDS011;64673;52.276;10.560;2023-07-16T01:17:12;6.50;;;2.75;;
75990;SDS011;64673;52.276;10.560;2023-07-16T01:19:37;5.18;;;2.72;;
75990;SDS011;64673;52.276;10.560;2023-07-16T01:27:44;5.80;;;3.35;;
75990;SDS011;64673;52.276;10.560;2023-07-16T01:30:14;8.75;;;3.25;;
75990;SDS011;64673;52.276;10.560;2023-07-16T01:32:43;5.40;;;2.72;;
75990;SDS011;64673;52.276;10.560;2023-07-16T01:35:10;4.72;;;2.90;;
75990;SDS011;64673;52.276;10.560;2023-07-16T01:37:36;6.72;;;2.90;;
75990;SDS011;64673;52.276;10.560;2023-07-16T01:40:02;4.65;;;2.83;;
75990;SDS011;64673;52.276;10.560;2023-07-16T01:42:28;4.43;;;2.53;;
75990;SDS011;64673;52.276;10.560;2023-07-16T01:44:53;4.38;;;2.45;;
75990;SDS011;64673;52.276;10.560;2023-07-16T01:49:53;3.97;;;2.80;;
75990;SDS011;64673;52.276;10.560;2023-07-16T01:52:19;4.95;;;2.67;;
75990;SDS011;64673;52.276;10.560;2023-07-16T01:54:44;4.00;;;2.40;;
75990;SDS011;64673;52.276;10.560;2023-07-16T01:57:10;3.92;;;2.60;;
75990;SDS011;64673;52.276;10.560;2023-07-16T01:59:35;4.18;;;2.67;;
75990;SDS011;64673;52.276;10.560;2023-07-16T02:02:00;4.32;;;2.50;;
75990;SDS011;64673;52.276;10.560;2023-07-16T02:04:25;3.53;;;2.38;;
75990;SDS011;64673;52.276;10.560;2023-07-16T02:06:51;2.95;;;2.60;;
75990;SDS011;64673;52.276;10.560;2023-07-16T02:09:16;3.38;;;2.50;;
75990;SDS011;64673;52.276;10.560;2023-07-16T02:11:41;4.43;;;2.50;;
75990;SDS011;64673;52.276;10.560;2023-07-16T02:14:07;5.07;;;2.70;;
75990;SDS011;64673;52.276;10.560;2023-07-16T02:16:32;3.50;;;2.60;;
75990;SDS011;64673;52.276;10.560;2023-07-16T02:18:58;5.30;;;2.50;;
75990;SDS011;64673;52.276;10.560;2023-07-16T02:21:23;4.40;;;2.70;;
75990;SDS011;64673;52.276;10.560;2023-07-16T02:23:48;3.75;;;2.38;;
75990;SDS011;64673;52.276;10.560;2023-07-16T02:26:13;4.60;;;2.60;;
75990;SDS011;64673;52.276;10.560;2023-07-16T02:28:39;4.38;;;2.47;;
75990;SDS011;64673;52.276;10.560;2023-07-16T02:31:04;4.63;;;2.45;;
75990;SDS011;64673;52.276;10.560;2023-07-16T02:33:30;5.13;;;2.28;;
75990;SDS011;64673;52.276;10.560;2023-07-16T02:35:55;3.85;;;2.10;;
75990;SDS011;64673;52.276;10.560;2023-07-16T02:38:20;4.85;;;2.05;;
75990;SDS011;64673;52.276;10.560;2023-07-16T02:40:46;3.13;;;2.00;;
75990;SDS011;64673;52.276;10.560;2023-07-16T02:43:13;3.88;;;2.10;;
75990;SDS011;64673;52.276;10.560;2023-07-16T02:45:39;4.60;;;1.85;;
75990;SDS011;64673;52.276;10.560;2023-07-16T02:48:05;3.42;;;1.60;;
75990;SDS011;64673;52.276;10.560;2023-07-16T02:50:34;3.33;;;1.70;;
75990;SDS011;64673;52.276;10.560;2023-07-16T02:53:01;3.78;;;1.33;;
75990;SDS011;64673;52.276;10.560;2023-07-16T02:55:26;2.78;;;1.60;;
75990;SDS011;64673;52.276;10.560;2023-07-16T02:57:52;3.45;;;1.95;;
75990;SDS011;64673;52.276;10.560;2023-07-16T03:00:17;4.32;;;2.15;;
75990;SDS011;64673;52.276;10.560;2023-07-16T03:02:42;4.13;;;2.60;;
75990;SDS011;64673;52.276;10.560;2023-07-16T03:05:08;5.82;;;2.85;;
75990;SDS011;64673;52.276;10.560;2023-07-16T03:07:33;6.68;;;2.78;;
75990;SDS011;64673;52.276;10.560;2023-07-16T03:09:59;5.15;;;2.50;;
75990;SDS011;64673;52.276;10.560;2023-07-16T03:12:28;3.78;;;2.60;;
75990;SDS011;64673;52.276;10.560;2023-07-16T03:14:53;4.78;;;2.47;;
75990;SDS011;64673;52.276;10.560;2023-07-16T03:17:19;4.47;;;2.30;;
75990;SDS011;64673;52.276;10.560;2023-07-16T03:19:47;5.22;;;2.45;;
75990;SDS011;64673;52.276;10.560;2023-07-16T03:22:12;3.17;;;2.33;;
75990;SDS011;64673;52.276;10.560;2023-07-16T03:24:37;4.55;;;2.50;;
75990;SDS011;64673;52.276;10.560;2023-07-16T03:27:03;4.03;;;2.78;;
75990;SDS011;64673;52.276;10.560;2023-07-16T03:29:28;5.00;;;2.70;;
75990;SDS011;64673;52.276;10.560;2023-07-16T03:31:54;3.33;;;2.72;;
75990;SDS011;64673;52.276;10.560;2023-07-16T03:34:19;4.68;;;2.90;;
75990;SDS011;64673;52.276;10.560;2023-07-16T03:36:46;3.85;;;2.60;;
75990;SDS011;64673;52.276;10.560;2023-07-16T03:39:11;4.45;;;3.00;;
75990;SDS011;64673;52.276;10.560;2023-07-16T03:41:36;6.50;;;2.95;;
75990;SDS011;64673;52.276;10.560;2023-07-16T03:44:01;5.60;;;2.92;;
75990;SDS011;64673;52.276;10.560;2023-07-16T03:46:27;4.53;;;2.72;;
75990;SDS011;64673;52.276;10.560;2023-07-16T03:48:52;5.18;;;3.38;;
75990;SDS011;64673;52.276;10.560;2023-07-16T03:51:18;6.25;;;3.30;;
75990;SDS011;64673;52.276;10.560;2023-07-16T03:53:46;6.00;;;3.13;;
75990;SDS011;64673;52.276;10.560;2023-07-16T03:56:11;5.15;;;3.40;;
75990;SDS011;64673;52.276;10.560;2023-07-16T03:58:37;4.03;;;2.90;;
75990;SDS011;64673;52.276;10.560;2023-07-16T04:01:02;6.35;;;3.25;;
75990;SDS011;64673;52.276;10.560;2023-07-16T04:03:28;7.38;;;3.80;;
75990;SDS011;64673;52.276;10.560;2023-07-16T04:06:00;6.93;;;3.65;;
75990;SDS011;64673;52.276;10.560;2023-07-16T04:08:27;8.18;;;3.88;;
75990;SDS011;64673;52.276;10.560;2023-07-16T04:10:52;6.55;;;3.50;;
75990;SDS011;64673;52.276;10.560;2023-07-16T04:13:17;7.15;;;3.78;;
75990;SDS011;64673;52.276;10.560;2023-07-16T04:15:43;5.70;;;3.78;;
75990;SDS011;64673;52.276;10.560;2023-07-16T04:18:08;6.47;;;3.08;;
75990;SDS011;64673;52.276;10.560;2023-07-16T04:20:33;8.35;;;3.55;;
75990;SDS011;64673;52.276;10.560;2023-07-16T04:22:59;4.80;;;3.03;;
75990;SDS011;64673;52.276;10.560;2023-07-16T04:25:24;6.18;;;3.58;;
75990;SDS011;64673;52.276;10.560;2023-07-16T04:27:49;3.33;;;2.15;;
75990;SDS011;64673;52.276;10.560;2023-07-16T04:30:15;8.02;;;2.60;;
75990;SDS011;64673;52.276;10.560;2023-07-16T04:32:40;7.60;;;2.60;;
75990;SDS011;64673;52.276;10.560;2023-07-16T04:35:05;4.85;;;2.63;;
75990;SDS011;64673;52.276;10.560;2023-07-16T04:37:31;3.92;;;2.60;;
75990;SDS011;64673;52.276;10.560;2023-07-16T04:39:56;7.45;;;3.08;;
75990;SDS011;64673;52.276;10.560;2023-07-16T04:42:21;5.90;;;3.03;;
75990;SDS011;64673;52.276;10.560;2023-07-16T04:44:47;3.97;;;2.35;;
75990;SDS011;64673;52.276;10.560;2023-07-16T04:47:12;6.35;;;2.63;;
75990;SDS011;64673;52.276;10.560;2023-07-16T04:49:37;5.82;;;3.35;;
75990;SDS011;64673;52.276;10.560;2023-07-16T04:52:03;5.35;;;3.42;;
75990;SDS011;64673;52.276;10.560;2023-07-16T04:54:28;5.88;;;3.03;;
75990;SDS011;64673;52.276;10.560;2023-07-16T04:56:54;3.55;;;2.55;;
75990;SDS011;64673;52.276;10.560;2023-07-16T04:59:19;5.97;;;3.20;;
75990;SDS011;64673;52.276;10.560;2023-07-16T05:01:44;5.28;;;2.85;;
75990;SDS011;64673;52.276;10.560;2023-07-16T05:04:10;6.28;;;2.42;;
75990;SDS011;64673;52.276;10.560;2023-07-16T05:06:35;3.50;;;1.80;;
75990;SDS011;64673;52.276;10.560;2023-07-16T05:09:00;4.57;;;2.00;;
75990;SDS011;64673;52.276;10.560;2023-07-16T05:11:26;3.33;;;1.77;;
75990;SDS011;64673;52.276;10.560;2023-07-16T05:13:51;3.30;;;2.13;;
75990;SDS011;64673;52.276;10.560;2023-07-16T05:16:16;2.88;;;2.05;;
75990;SDS011;64673;52.276;10.560;2023-07-16T05:18:42;2.33;;;1.38;;
75990;SDS011;64673;52.276;10.560;2023-07-16T05:21:07;4.25;;;1.88;;
75990;SDS011;64673;52.276;10.560;2023-07-16T05:23:32;4.25;;;1.90;;
75990;SDS011;64673;52.276;10.560;2023-07-16T05:25:58;3.90;;;2.05;;
75990;SDS011;64673;52.276;10.560;2023-07-16T05:28:24;4.13;;;1.63;;
75990;SDS011;64673;52.276;10.560;2023-07-16T05:30:59;5.53;;;1.90;;
75990;SDS011;64673;52.276;10.560;2023-07-16T05:33:27;4.28;;;2.17;;
75990;SDS011;64673;52.276;10.560;2023-07-16T05:35:53;2.88;;;1.92;;
75990;SDS011;64673;52.276;10.560;2023-07-16T05:38:18;3.63;;;1.75;;
75990;SDS011;64673;52.276;10.560;2023-07-16T05:40:44;3.25;;;1.38;;
75990;SDS011;64673;52.276;10.560;2023-07-16T05:43:09;3.42;;;1.38;;
75990;SDS011;64673;52.276;10.560;2023-07-16T05:45:35;5.53;;;2.00;;
75990;SDS011;64673;52.276;10.560;2023-07-16T05:48:01;3.72;;;1.40;;
75990;SDS011;64673;52.276;10.560;2023-07-16T05:50:26;4.95;;;1.50;;
75990;SDS011;64673;52.276;10.560;2023-07-16T05:52:51;2.00;;;1.60;;
75990;SDS011;64673;52.276;10.560;2023-07-16T05:55:17;2.55;;;1.50;;
75990;SDS011;64673;52.276;10.560;2023-07-16T05:57:42;2.88;;;1.42;;
75990;SDS011;64673;52.276;10.560;2023-07-16T06:00:08;3.08;;;1.70;;
75990;SDS011;64673;52.276;10.560;2023-07-16T06:02:34;2.03;;;1.20;;
75990;SDS011;64673;52.276;10.560;2023-07-16T06:04:59;2.67;;;1.27;;
75990;SDS011;64673;52.276;10.560;2023-07-16T06:07:24;2.40;;;1.13;;
75990;SDS011;64673;52.276;10.560;2023-07-16T06:09:50;3.15;;;1.33;;
75990;SDS011;64673;52.276;10.560;2023-07-16T06:12:15;4.47;;;1.33;;
75990;SDS011;64673;52.276;10.560;2023-07-16T06:14:40;2.15;;;1.30;;
75990;SDS011;64673;52.276;10.560;2023-07-16T06:17:06;3.65;;;1.58;;
75990;SDS011;64673;52.276;10.560;2023-07-16T06:19:31;2.92;;;1.55;;
75990;SDS011;64673;52.276;10.560;2023-07-16T06:21:56;4.07;;;1.30;;
75990;SDS011;64673;52.276;10.560;2023-07-16T06:24:22;4.38;;;1.33;;
75990;SDS011;64673;52.276;10.560;2023-07-16T06:26:47;3.33;;;1.10;;
75990;SDS011;64673;52.276;10.560;2023-07-16T06:29:13;4.13;;;1.58;;
75990;SDS011;64673;52.276;10.560;2023-07-16T06:31:38;2.00;;;1.17;;
75990;SDS011;64673;52.276;10.560;2023-07-16T06:34:03;5.00;;;1.45;;
75990;SDS011;64673;52.276;10.560;2023-07-16T06:36:29;2.75;;;1.30;;
75990;SDS011;64673;52.276;10.560;2023-07-16T06:38:54;2.47;;;1.25;;
75990;SDS011;64673;52.276;10.560;2023-07-16T06:41:20;2.03;;;1.20;;
75990;SDS011;64673;52.276;10.560;2023-07-16T06:43:45;4.05;;;1.42;;
75990;SDS011;64673;52.276;10.560;2023-07-16T06:46:10;3.75;;;1.40;;
75990;SDS011;64673;52.276;10.560;2023-07-16T06:48:35;2.88;;;1.38;;
75990;SDS011;64673;52.276;10.560;2023-07-16T06:51:01;3.10;;;1.42;;
75990;SDS011;64673;52.276;10.560;2023-07-16T06:53:26;3.50;;;1.60;;
75990;SDS011;64673;52.276;10.560;2023-07-16T06:55:52;4.22;;;1.50;;
75990;SDS011;64673;52.276;10.560;2023-07-16T06:58:17;3.70;;;1.63;;
75990;SDS011;64673;52.276;10.560;2023-07-16T07:00:42;4.82;;;1.45;;
75990;SDS011;64673;52.276;10.560;2023-07-16T07:03:08;3.90;;;1.60;;
75990;SDS011;64673;52.276;10.560;2023-07-16T07:05:33;4.13;;;1.40;;
75990;SDS011;64673;52.276;10.560;2023-07-16T07:08:01;2.40;;;1.35;;
75990;SDS011;64673;52.276;10.560;2023-07-16T07:10:26;3.15;;;1.27;;
75990;SDS011;64673;52.276;10.560;2023-07-16T07:12:52;3.50;;;1.38;;
75990;SDS011;64673;52.276;10.560;2023-07-16T07:15:17;3.42;;;1.60;;
75990;SDS011;64673;52.276;10.560;2023-07-16T07:17:42;2.13;;;1.33;;
75990;SDS011;64673;52.276;10.560;2023-07-16T07:20:11;3.80;;;1.20;;
75990;SDS011;64673;52.276;10.560;2023-07-16T07:22:37;4.45;;;1.33;;
75990;SDS011;64673;52.276;10.560;2023-07-16T07:25:03;3.22;;;1.50;;
75990;SDS011;64673;52.276;10.560;2023-07-16T07:27:29;3.20;;;1.48;;
75990;SDS011;64673;52.276;10.560;2023-07-16T07:29:54;3.08;;;1.42;;
75990;SDS011;64673;52.276;10.560;2023-07-16T07:32:20;3.63;;;1.30;;
75990;SDS011;64673;52.276;10.560;2023-07-16T07:34:46;2.35;;;1.50;;
75990;SDS011;64673;52.276;10.560;2023-07-16T07:37:12;3.05;;;1.02;;
75990;SDS011;64673;52.276;10.560;2023-07-16T07:39:37;2.17;;;1.10;;
75990;SDS011;64673;52.276;10.560;2023-07-16T07:42:02;2.10;;;1.20;;
75990;SDS011;64673;52.276;10.560;2023-07-16T07:44:28;2.15;;;1.20;;
75990;SDS011;64673;52.276;10.560;2023-07-16T07:46:53;5.43;;;1.45;;
75990;SDS011;64673;52.276;10.560;2023-07-16T07:49:19;3.03;;;1.08;;
75990;SDS011;64673;52.276;10.560;2023-07-16T07:51:44;2.65;;;1.20;;
75990;SDS011;64673;52.276;10.560;2023-07-16T07:54:09;3.13;;;1.02;;
75990;SDS011;64673;52.276;10.560;2023-07-16T07:56:35;1.75;;;0.82;;
75990;SDS011;64673;52.276;10.560;2023-07-16T07:59:00;3.72;;;1.30;;
75990;SDS011;64673;52.276;10.560;2023-07-16T08:01:25;2.75;;;0.82;;
75990;SDS011;64673;52.276;10.560;2023-07-16T08:03:51;2.20;;;1.10;;
75990;SDS011;64673;52.276;10.560;2023-07-16T08:06:17;5.03;;;1.23;;
75990;SDS011;64673;52.276;10.560;2023-07-16T08:08:42;2.13;;;0.90;;
75990;SDS011;64673;52.276;10.560;2023-07-16T08:11:07;1.95;;;1.05;;
75990;SDS011;64673;52.276;10.560;2023-07-16T08:13:33;3.28;;;0.80;;
75990;SDS011;64673;52.276;10.560;2023-07-16T08:15:58;1.95;;;0.70;;
75990;SDS011;64673;52.276;10.560;2023-07-16T08:18:23;1.77;;;0.90;;
75990;SDS011;64673;52.276;10.560;2023-07-16T08:20:49;1.13;;;0.75;;
75990;SDS011;64673;52.276;10.560;2023-07-16T08:23:14;5.15;;;0.90;;
75990;SDS011;64673;52.276;10.560;2023-07-16T08:25:39;4.13;;;1.00;;
75990;SDS011;64673;52.276;10.560;2023-07-16T08:28:05;1.67;;;0.80;;
75990;SDS011;64673;52.276;10.560;2023-07-16T08:32:58;3.85;;;0.90;;
75990;SDS011;64673;52.276;10.560;2023-07-16T08:35:23;5.00;;;1.15;;
75990;SDS011;64673;52.276;10.560;2023-07-16T08:37:48;2.90;;;1.25;;
75990;SDS011;64673;52.276;10.560;2023-07-16T08:40:14;1.92;;;0.90;;
75990;SDS011;64673;52.276;10.560;2023-07-16T08:42:40;2.20;;;0.80;;
75990;SDS011;64673;52.276;10.560;2023-07-16T08:45:09;2.13;;;0.80;;
75990;SDS011;64673;52.276;10.560;2023-07-16T08:47:36;2.58;;;0.73;;
75990;SDS011;64673;52.276;10.560;2023-07-16T08:50:02;2.58;;;1.20;;
75990;SDS011;64673;52.276;10.560;2023-07-16T08:52:28;3.00;;;0.93;;
75990;SDS011;64673;52.276;10.560;2023-07-16T08:54:54;4.28;;;1.20;;
75990;SDS011;64673;52.276;10.560;2023-07-16T08:57:20;2.05;;;0.77;;
75990;SDS011;64673;52.276;10.560;2023-07-16T08:59:50;3.38;;;0.90;;
75990;SDS011;64673;52.276;10.560;2023-07-16T09:02:19;3.38;;;1.10;;
75990;SDS011;64673;52.276;10.560;2023-07-16T09:04:49;3.03;;;1.02;;
75990;SDS011;64673;52.276;10.560;2023-07-16T09:07:16;2.70;;;1.10;;
75990;SDS011;64673;52.276;10.560;2023-07-16T09:09:42;4.80;;;0.90;;
75990;SDS011;64673;52.276;10.560;2023-07-16T09:12:11;2.83;;;0.90;;
75990;SDS011;64673;52.276;10.560;2023-07-16T09:14:37;3.25;;;1.00;;
75990;SDS011;64673;52.276;10.560;2023-07-16T09:17:02;2.95;;;0.82;;
75990;SDS011;64673;52.276;10.560;2023-07-16T09:19:31;1.85;;;0.90;;
75990;SDS011;64673;52.276;10.560;2023-07-16T09:21:57;3.00;;;1.10;;
75990;SDS011;64673;52.276;10.560;2023-07-16T09:24:22;4.95;;;1.27;;
75990;SDS011;64673;52.276;10.560;2023-07-16T09:26:54;2.42;;;1.10;;
75990;SDS011;64673;52.276;10.560;2023-07-16T09:29:24;2.25;;;1.13;;
75990;SDS011;64673;52.276;10.560;2023-07-16T09:31:56;3.03;;;1.10;;
75990;SDS011;64673;52.276;10.560;2023-07-16T09:36:48;2.42;;;0.90;;
75990;SDS011;64673;52.276;10.560;2023-07-16T09:39:16;6.20;;;1.08;;
75990;SDS011;64673;52.276;10.560;2023-07-16T09:41:43;3.78;;;1.10;;
75990;SDS011;64673;52.276;10.560;2023-07-16T09:44:09;1.98;;;1.00;;
75990;SDS011;64673;52.276;10.560;2023-07-16T09:46:36;4.88;;;1.17;;
75990;SDS011;64673;52.276;10.560;2023-07-16T09:49:01;2.17;;;1.15;;
75990;SDS011;64673;52.276;10.560;2023-07-16T09:51:27;2.30;;;0.88;;
75990;SDS011;64673;52.276;10.560;2023-07-16T09:53:55;2.03;;;0.95;;
75990;SDS011;64673;52.276;10.560;2023-07-16T09:56:22;2.75;;;0.90;;
75990;SDS011;64673;52.276;10.560;2023-07-16T09:58:54;3.15;;;0.93;;
75990;SDS011;64673;52.276;10.560;2023-07-16T10:03:49;4.78;;;1.10;;
75990;SDS011;64673;52.276;10.560;2023-07-16T10:06:15;2.05;;;1.13;;
75990;SDS011;64673;52.276;10.560;2023-07-16T10:08:48;2.45;;;1.10;;
75990;SDS011;64673;52.276;10.560;2023-07-16T10:11:18;3.33;;;1.23;;
75990;SDS011;64673;52.276;10.560;2023-07-16T10:13:48;2.78;;;1.10;;
75990;SDS011;64673;52.276;10.560;2023-07-16T10:16:22;1.70;;;0.70;;
75990;SDS011;64673;52.276;10.560;2023-07-16T10:18:52;2.58;;;1.30;;
75990;SDS011;64673;52.276;10.560;2023-07-16T10:21:23;4.90;;;1.02;;
75990;SDS011;64673;52.276;10.560;2023-07-16T10:23:56;2.15;;;0.88;;
75990;SDS011;64673;52.276;10.560;2023-07-16T10:26:26;2.80;;;0.90;;
75990;SDS011;64673;52.276;10.560;2023-07-16T10:28:54;3.35;;;1.00;;
75990;SDS011;64673;52.276;10.560;2023-07-16T10:31:25;2.22;;;1.10;;
75990;SDS011;64673;52.276;10.560;2023-07-16T10:34:00;2.45;;;0.90;;
75990;SDS011;64673;52.276;10.560;2023-07-16T10:36:26;2.30;;;1.05;;
75990;SDS011;64673;52.276;10.560;2023-07-16T10:38:51;3.55;;;1.10;;
75990;SDS011;64673;52.276;10.560;2023-07-16T10:41:17;4.03;;;1.08;;
75990;SDS011;64673;52.276;10.560;2023-07-16T10:43:42;4.32;;;1.17;;
75990;SDS011;64673;52.276;10.560;2023-07-16T10:46:08;2.35;;;0.90;;
75990;SDS011;64673;52.276;10.560;2023-07-16T10:48:34;4.10;;;1.15;;
75990;SDS011;64673;52.276;10.560;2023-07-16T10:50:59;2.08;;;1.05;;
75990;SDS011;64673;52.276;10.560;2023-07-16T10:53:25;2.30;;;0.70;;
75990;SDS011;64673;52.276;10.560;2023-07-16T10:55:50;6.10;;;1.70;;
75990;SDS011;64673;52.276;10.560;2023-07-16T10:58:16;4.13;;;1.20;;
75990;SDS011;64673;52.276;10.560;2023-07-16T11:00:41;3.85;;;1.00;;
75990;SDS011;64673;52.276;10.560;2023-07-16T11:03:07;2.22;;;1.17;;
75990;SDS011;64673;52.276;10.560;2023-07-16T11:05:33;3.53;;;1.10;;
75990;SDS011;64673;52.276;10.560;2023-07-16T11:07:58;3.30;;;1.02;;
75990;SDS011;64673;52.276;10.560;2023-07-16T11:10:24;2.10;;;1.10;;
75990;SDS011;64673;52.276;10.560;2023-07-16T11:12:54;4.13;;;1.20;;
75990;SDS011;64673;52.276;10.560;2023-07-16T11:15:35;2.63;;;1.00;;
75990;SDS011;64673;52.276;10.560;2023-07-16T11:18:01;1.70;;;1.08;;
75990;SDS011;64673;52.276;10.560;2023-07-16T11:20:27;2.33;;;1.10;;
75990;SDS011;64673;52.276;10.560;2023-07-16T11:22:54;2.53;;;0.88;;
75990;SDS011;64673;52.276;10.560;2023-07-16T11:25:23;2.83;;;0.98;;
75990;SDS011;64673;52.276;10.560;2023-07-16T11:27:49;1.80;;;1.17;;
75990;SDS011;64673;52.276;10.560;2023-07-16T11:30:22;4.30;;;1.17;;
75990;SDS011;64673;52.276;10.560;2023-07-16T11:32:48;2.80;;;0.93;;
75990;SDS011;64673;52.276;10.560;2023-07-16T11:35:17;2.33;;;0.80;;
75990;SDS011;64673;52.276;10.560;2023-07-16T11:37:43;3.83;;;0.90;;
75990;SDS011;64673;52.276;10.560;2023-07-16T11:40:10;6.47;;;1.15;;
75990;SDS011;64673;52.276;10.560;2023-07-16T11:42:39;2.92;;;1.10;;
75990;SDS011;64673;52.276;10.560;2023-07-16T11:45:16;2.78;;;1.30;;
75990;SDS011;64673;52.276;10.560;2023-07-16T11:47:42;3.08;;;1.20;;
75990;SDS011;64673;52.276;10.560;2023-07-16T11:50:08;3.95;;;1.10;;
75990;SDS011;64673;52.276;10.560;2023-07-16T11:52:33;3.47;;;1.20;;
75990;SDS011;64673;52.276;10.560;2023-07-16T11:54:59;3.00;;;1.00;;
75990;SDS011;64673;52.276;10.560;2023-07-16T11:57:25;2.30;;;1.10;;
75990;SDS011;64673;52.276;10.560;2023-07-16T11:59:50;2.63;;;1.50;;
75990;SDS011;64673;52.276;10.560;2023-07-16T12:02:16;2.72;;;1.02;;
75990;SDS011;64673;52.276;10.560;2023-07-16T12:04:42;4.00;;;1.50;;
75990;SDS011;64673;52.276;10.560;2023-07-16T12:07:07;3.72;;;1.00;;
75990;SDS011;64673;52.276;10.560;2023-07-16T12:09:33;3.55;;;1.48;;
75990;SDS011;64673;52.276;10.560;2023-07-16T12:11:59;4.18;;;1.10;;
75990;SDS011;64673;52.276;10.560;2023-07-16T12:14:24;3.72;;;1.20;;
75990;SDS011;64673;52.276;10.560;2023-07-16T12:16:50;2.40;;;1.27;;
75990;SDS011;64673;52.276;10.560;2023-07-16T12:19:15;3.25;;;1.08;;
75990;SDS011;64673;52.276;10.560;2023-07-16T12:21:40;2.38;;;1.13;;
75990;SDS011;64673;52.276;10.560;2023-07-16T12:24:06;2.50;;;1.35;;
75990;SDS011;64673;52.276;10.560;2023-07-16T12:26:31;3.53;;;1.20;;
75990;SDS011;64673;52.276;10.560;2023-07-16T12:28:56;3.25;;;1.33;;
75990;SDS011;64673;52.276;10.560;2023-07-16T12:31:22;4.40;;;1.35;;
75990;SDS011;64673;52.276;10.560;2023-07-16T12:33:47;2.67;;;1.42;;
75990;SDS011;64673;52.276;10.560;2023-07-16T12:36:13;4.03;;;1.17;;
75990;SDS011;64673;52.276;10.560;2023-07-16T12:38:39;2.58;;;1.38;;
75990;SDS011;64673;52.276;10.560;2023-07-16T12:41:05;3.08;;;1.25;;
75990;SDS011;64673;52.276;10.560;2023-07-16T12:43:31;3.85;;;1.25;;
75990;SDS011;64673;52.276;10.560;2023-07-16T12:45:59;3.70;;;1.30;;
75990;SDS011;64673;52.276;10.560;2023-07-16T12:48:26;2.63;;;1.27;;
75990;SDS011;64673;52.276;10.560;2023-07-16T12:50:51;1.92;;;1.25;;
75990;SDS011;64673;52.276;10.560;2023-07-16T12:53:17;3.70;;;1.55;;
75990;SDS011;64673;52.276;10.560;2023-07-16T12:55:42;5.65;;;1.80;;
75990;SDS011;64673;52.276;10.560;2023-07-16T12:58:07;2.17;;;1.10;;
75990;SDS011;64673;52.276;10.560;2023-07-16T13:00:33;4.40;;;1.45;;
75990;SDS011;64673;52.276;10.560;2023-07-16T13:02:58;3.45;;;1.40;;
75990;SDS011;64673;52.276;10.560;2023-07-16T13:05:23;2.13;;;1.25;;
75990;SDS011;64673;52.276;10.560;2023-07-16T13:07:49;4.10;;;1.38;;
75990;SDS011;64673;52.276;10.560;2023-07-16T13:10:14;2.83;;;1.23;;
75990;SDS011;64673;52.276;10.560;2023-07-16T13:12:39;4.20;;;1.38;;
75990;SDS011;64673;52.276;10.560;2023-07-16T13:15:05;3.15;;;1.40;;
75990;SDS011;64673;52.276;10.560;2023-07-16T13:17:31;4.43;;;1.52;;
75990;SDS011;64673;52.276;10.560;2023-07-16T13:19:56;3.40;;;1.50;;
75990;SDS011;64673;52.276;10.560;2023-07-16T13:22:21;2.97;;;1.23;;
75990;SDS011;64673;52.276;10.560;2023-07-16T13:24:47;3.42;;;1.30;;
75990;SDS011;64673;52.276;10.560;2023-07-16T13:27:22;2.30;;;1.30;;
75990;SDS011;64673;52.276;10.560;2023-07-16T13:29:48;3.92;;;1.42;;
75990;SDS011;64673;52.276;10.560;2023-07-16T13:32:14;4.13;;;1.38;;
75990;SDS011;64673;52.276;10.560;2023-07-16T13:34:39;2.58;;;1.27;;
75990;SDS011;64673;52.276;10.560;2023-07-16T13:37:04;3.67;;;1.90;;
75990;SDS011;64673;52.276;10.560;2023-07-16T13:39:30;2.92;;;1.60;;
75990;SDS011;64673;52.276;10.560;2023-07-16T13:41:55;2.75;;;1.30;;
75990;SDS011;64673;52.276;10.560;2023-07-16T13:44:21;3.03;;;1.70;;
75990;SDS011;64673;52.276;10.560;2023-07-16T13:46:46;2.60;;;1.50;;
75990;SDS011;64673;52.276;10.560;2023-07-16T13:49:12;3.22;;;1.63;;
75990;SDS011;64673;52.276;10.560;2023-07-16T13:51:37;2.72;;;1.58;;
75990;SDS011;64673;52.276;10.560;2023-07-16T13:54:03;3.90;;;1.45;;
75990;SDS011;64673;52.276;10.560;2023-07-16T13:56:28;4.85;;;1.42;;
75990;SDS011;64673;52.276;10.560;2023-07-16T13:58:53;2.70;;;1.45;;
75990;SDS011;64673;52.276;10.560;2023-07-16T14:01:19;4.50;;;1.35;;
75990;SDS011;64673;52.276;10.560;2023-07-16T14:03:44;3.47;;;1.70;;
75990;SDS011;64673;52.276;10.560;2023-07-16T14:06:09;3.15;;;1.50;;
75990;SDS011;64673;52.276;10.560;2023-07-16T14:08:35;2.50;;;1.58;;
75990;SDS011;64673;52.276;10.560;2023-07-16T14:11:01;3.10;;;1.73;;
75990;SDS011;64673;52.276;10.560;2023-07-16T14:13:26;3.08;;;1.75;;
75990;SDS011;64673;52.276;10.560;2023-07-16T14:15:52;2.67;;;1.35;;
75990;SDS011;64673;52.276;10.560;2023-07-16T14:18:17;14.43;;;2.85;;
75990;SDS011;64673;52.276;10.560;2023-07-16T14:20:42;3.03;;;1.52;;
75990;SDS011;64673;52.276;10.560;2023-07-16T14:23:08;3.92;;;1.27;;
75990;SDS011;64673;52.276;10.560;2023-07-16T14:25:33;4.47;;;1.80;;
75990;SDS011;64673;52.276;10.560;2023-07-16T14:27:58;2.40;;;1.45;;
75990;SDS011;64673;52.276;10.560;2023-07-16T14:30:24;3.40;;;1.75;;
75990;SDS011;64673;52.276;10.560;2023-07-16T14:32:49;2.85;;;1.38;;
75990;SDS011;64673;52.276;10.560;2023-07-16T14:35:14;2.20;;;1.48;;
75990;SDS011;64673;52.276;10.560;2023-07-16T14:37:40;3.80;;;2.05;;
75990;SDS011;64673;52.276;10.560;2023-07-16T14:40:06;3.97;;;1.73;;
75990;SDS011;64673;52.276;10.560;2023-07-16T14:42:33;3.65;;;1.58;;